createdAt,value
2023-02-17T00:00:31.832Z,0.63
2023-02-17T00:02:36.915Z,0.62
2023-02-17T00:04:42.318Z,0.54
2023-02-17T00:06:47.728Z,0.5
2023-02-17T00:08:52.953Z,0.52
2023-02-17T00:10:58.454Z,0.64
2023-02-17T00:13:03.524Z,0.82
2023-02-17T00:15:08.570Z,0.96
2023-02-17T00:17:13.670Z,0.98
2023-02-17T00:19:18.791Z,0.96
2023-02-17T00:21:27.040Z,0.98
2023-02-17T00:23:32.239Z,0.92
2023-02-17T00:25:40.172Z,0.91
2023-02-17T00:27:45.334Z,0.98
2023-02-17T00:29:50.359Z,1
2023-02-17T00:31:55.674Z,1.01
2023-02-17T00:34:01.557Z,1.01
2023-02-17T00:36:07.251Z,0.95
2023-02-17T00:38:12.570Z,1.04
2023-02-17T00:40:17.668Z,1.12
2023-02-17T00:42:22.605Z,1.15
2023-02-17T00:44:27.640Z,1.15
2023-02-17T00:46:32.781Z,1.16
2023-02-17T00:48:38.119Z,1.23
2023-02-17T00:50:43.472Z,1.2
2023-02-17T00:52:48.426Z,1.21
2023-02-17T00:54:53.856Z,1.17
2023-02-17T00:56:58.886Z,1.18
2023-02-17T00:59:04.193Z,1.15
2023-02-17T01:01:09.407Z,1.11
2023-02-17T01:03:14.688Z,1.08
2023-02-17T01:05:20.000Z,1.12
2023-02-17T01:07:25.165Z,1.16
2023-02-17T01:09:30.154Z,1.21
2023-02-17T01:11:35.134Z,1.27
2023-02-17T01:13:40.458Z,1.27
2023-02-17T01:15:45.627Z,1.27
2023-02-17T01:17:50.737Z,1.24
2023-02-17T01:19:55.840Z,1.26
2023-02-17T01:22:00.932Z,1.24
2023-02-17T01:24:06.060Z,1.27
2023-02-17T01:26:11.339Z,1.32
2023-02-17T01:28:16.883Z,1.33
2023-02-17T01:30:22.112Z,1.28
2023-02-17T01:32:27.441Z,1.35
2023-02-17T01:34:32.590Z,1.45
2023-02-17T01:36:37.851Z,1.45
2023-02-17T01:38:42.929Z,1.53
2023-02-17T01:40:48.045Z,1.54
2023-02-17T01:42:53.086Z,1.49
2023-02-17T01:44:58.449Z,1.49
2023-02-17T01:47:03.675Z,1.48
2023-02-17T01:49:08.790Z,1.45
2023-02-17T01:51:13.932Z,1.44
2023-02-17T01:53:19.116Z,1.44
2023-02-17T01:55:24.297Z,1.54
2023-02-17T01:57:29.251Z,1.52
2023-02-17T01:59:34.347Z,1.5
2023-02-17T02:01:39.582Z,1.41
2023-02-17T02:03:45.346Z,1.38
2023-02-17T02:05:50.218Z,1.34
2023-02-17T02:07:55.381Z,1.35
2023-02-17T02:10:00.443Z,1.36
2023-02-17T02:12:05.680Z,1.38
2023-02-17T02:14:10.594Z,1.43
2023-02-17T02:16:15.820Z,1.63
2023-02-17T02:18:21.260Z,1.68
2023-02-17T02:20:26.505Z,1.81
2023-02-17T02:22:31.594Z,1.87
2023-02-17T02:24:36.988Z,1.89
2023-02-17T02:26:42.137Z,1.91
2023-02-17T02:28:47.236Z,2.08
2023-02-17T02:30:52.495Z,2.16
2023-02-17T02:32:57.651Z,2.29
2023-02-17T02:35:02.822Z,2.33
2023-02-17T02:37:07.939Z,2.41
2023-02-17T02:39:13.536Z,2.46
2023-02-17T02:41:19.070Z,2.4
2023-02-17T02:43:23.998Z,2.41
2023-02-17T02:45:28.973Z,2.44
2023-02-17T02:47:34.329Z,2.39
2023-02-17T02:49:39.347Z,2.44
2023-02-17T02:51:44.649Z,2.49
2023-02-17T02:53:50.115Z,2.5
2023-02-17T02:55:55.405Z,2.54
2023-02-17T02:58:00.361Z,2.62
2023-02-17T03:00:05.414Z,2.7
2023-02-17T03:02:10.451Z,2.68
2023-02-17T03:04:15.559Z,2.64
2023-02-17T03:06:20.734Z,2.55
2023-02-17T03:08:25.722Z,2.51
2023-02-17T03:10:30.735Z,2.48
2023-02-17T03:12:36.004Z,2.51
2023-02-17T03:14:41.017Z,2.55
2023-02-17T03:16:46.268Z,2.54
2023-02-17T03:18:51.435Z,2.59
2023-02-17T03:20:56.379Z,2.58
2023-02-17T03:23:01.365Z,2.61
2023-02-17T03:25:06.403Z,2.64
2023-02-17T03:27:11.432Z,2.63
2023-02-17T03:29:16.529Z,2.74
2023-02-17T03:31:21.833Z,2.75
2023-02-17T03:33:27.357Z,2.8
2023-02-17T03:35:32.391Z,2.82
2023-02-17T03:37:37.382Z,2.85
2023-02-17T03:39:42.443Z,2.86
2023-02-17T03:41:47.583Z,2.86
2023-02-17T03:43:52.474Z,2.85
2023-02-17T03:45:57.351Z,2.87
2023-02-17T03:48:02.555Z,2.9
2023-02-17T03:50:07.590Z,2.86
2023-02-17T03:52:12.378Z,2.85
2023-02-17T03:54:17.496Z,2.82
2023-02-17T03:56:22.428Z,2.82
2023-02-17T03:58:27.468Z,2.9
2023-02-17T04:00:32.412Z,2.9
2023-02-17T04:02:37.257Z,2.89
2023-02-17T04:04:46.149Z,2.9
2023-02-17T04:06:51.065Z,2.91
2023-02-17T04:08:56.088Z,2.95
2023-02-17T04:11:01.180Z,2.98
2023-02-17T04:13:06.265Z,3.01
2023-02-17T04:15:11.452Z,2.99
2023-02-17T04:17:16.544Z,2.98
2023-02-17T04:19:21.542Z,2.99
2023-02-17T04:21:26.669Z,3.01
2023-02-17T04:23:31.828Z,3.05
2023-02-17T04:25:36.929Z,3.08
2023-02-17T04:27:42.034Z,3.07
2023-02-17T04:29:47.090Z,3.02
2023-02-17T04:31:52.223Z,3.03
2023-02-17T04:33:58.163Z,3.03
2023-02-17T04:36:03.399Z,3.04
2023-02-17T04:38:10.046Z,3.03
2023-02-17T04:40:15.068Z,3.06
2023-02-17T04:42:20.277Z,3.02
2023-02-17T04:44:28.571Z,3.03
2023-02-17T04:46:33.437Z,3.01
2023-02-17T04:48:38.340Z,3
2023-02-17T04:50:43.341Z,2.98
2023-02-17T04:52:48.495Z,2.95
2023-02-17T04:54:53.590Z,2.91
2023-02-17T04:56:58.636Z,2.96
2023-02-17T04:59:04.107Z,2.94
2023-02-17T05:01:09.566Z,2.91
2023-02-17T05:03:14.718Z,2.85
2023-02-17T05:05:19.837Z,2.81
2023-02-17T05:07:25.177Z,2.8
2023-02-17T05:09:30.098Z,2.78
2023-02-17T05:11:35.310Z,2.81
2023-02-17T05:13:40.608Z,2.79
2023-02-17T05:15:46.016Z,2.81
2023-02-17T05:17:51.009Z,2.8
2023-02-17T05:19:55.968Z,2.78
2023-02-17T05:22:01.000Z,2.8
2023-02-17T05:24:06.109Z,2.81
2023-02-17T05:26:11.289Z,2.8
2023-02-17T05:28:16.531Z,2.82
2023-02-17T05:30:21.624Z,2.81
2023-02-17T05:32:27.164Z,2.85
2023-02-17T05:34:32.126Z,2.84
2023-02-17T05:36:37.314Z,2.83
2023-02-17T05:38:42.536Z,2.87
2023-02-17T05:40:47.699Z,2.84
2023-02-17T05:42:52.555Z,2.85
2023-02-17T05:44:58.671Z,2.85
2023-02-17T05:47:03.879Z,2.83
2023-02-17T05:49:08.894Z,2.77
2023-02-17T05:51:13.820Z,2.77
2023-02-17T05:53:18.851Z,2.74
2023-02-17T05:55:23.946Z,2.76
2023-02-17T05:57:29.136Z,2.74
2023-02-17T05:59:34.205Z,2.72
2023-02-17T06:01:39.780Z,2.71
2023-02-17T06:03:45.243Z,2.73
2023-02-17T06:05:50.295Z,2.73
2023-02-17T06:07:55.607Z,2.73
2023-02-17T06:10:01.005Z,2.76
2023-02-17T06:12:06.255Z,2.77
2023-02-17T06:14:11.214Z,2.8
2023-02-17T06:16:16.297Z,2.83
2023-02-17T06:18:21.495Z,2.89
2023-02-17T06:20:26.782Z,2.92
2023-02-17T06:22:32.106Z,2.88
2023-02-17T06:24:37.148Z,2.88
2023-02-17T06:26:42.319Z,2.91
2023-02-17T06:28:47.533Z,2.93
2023-02-17T06:30:52.613Z,2.96
2023-02-17T06:32:58.006Z,3
2023-02-17T06:35:03.219Z,3
2023-02-17T06:37:08.390Z,3.02
2023-02-17T06:39:13.535Z,3.05
2023-02-17T06:41:18.660Z,3.09
2023-02-17T06:43:23.953Z,3.11
2023-02-17T06:45:29.050Z,3.12
2023-02-17T06:47:34.740Z,3.18
2023-02-17T06:49:40.929Z,3.24
2023-02-17T06:51:46.279Z,3.28
2023-02-17T06:53:51.921Z,3.31
2023-02-17T06:55:56.933Z,3.36
2023-02-17T06:58:01.914Z,3.43
2023-02-17T07:00:07.295Z,3.41
2023-02-17T07:02:17.368Z,3.42
2023-02-17T07:04:23.089Z,3.5
2023-02-17T07:06:28.611Z,3.57
2023-02-17T07:08:37.267Z,3.62
2023-02-17T07:10:43.203Z,3.68
2023-02-17T07:12:48.897Z,3.76
2023-02-17T07:14:54.101Z,3.77
2023-02-17T07:16:59.672Z,3.66
2023-02-17T07:19:06.572Z,3.65
2023-02-17T07:21:11.655Z,3.76
2023-02-17T07:23:16.632Z,3.86
2023-02-17T07:25:21.830Z,3.97
2023-02-17T07:27:27.199Z,4.08
2023-02-17T07:29:32.228Z,4.18
2023-02-17T07:31:49.810Z,4.24
2023-02-17T07:33:55.310Z,4.35
2023-02-17T07:36:00.523Z,4.38
2023-02-17T07:38:06.282Z,4.43
2023-02-17T07:40:11.612Z,4.55
2023-02-17T07:42:19.838Z,4.69
2023-02-17T07:44:25.273Z,4.74
2023-02-17T07:46:30.877Z,4.8
2023-02-17T07:48:36.391Z,4.82
2023-02-17T07:50:41.886Z,4.95
2023-02-17T07:52:47.625Z,4.9
2023-02-17T07:54:53.420Z,5
2023-02-17T07:56:58.944Z,5.13
2023-02-17T07:59:05.234Z,5.04
2023-02-17T08:01:12.456Z,5.11
2023-02-17T08:03:18.183Z,5.25
2023-02-17T08:05:25.887Z,5.34
2023-02-17T08:07:31.265Z,5.42
2023-02-17T08:09:36.893Z,5.46
2023-02-17T08:11:43.986Z,5.46
2023-02-17T08:13:53.316Z,5.51
2023-02-17T08:15:58.715Z,5.47
2023-02-17T08:18:04.862Z,5.47
2023-02-17T08:20:10.742Z,5.44
2023-02-17T08:22:17.315Z,5.62
2023-02-17T08:24:23.503Z,5.68
2023-02-17T08:26:28.828Z,5.7
2023-02-17T08:28:34.190Z,5.77
2023-02-17T08:30:39.439Z,5.83
2023-02-17T08:32:45.814Z,5.9
2023-02-17T08:34:51.442Z,5.73
2023-02-17T08:36:57.245Z,5.78
2023-02-17T08:39:04.431Z,5.87
2023-02-17T08:41:09.451Z,5.82
2023-02-17T08:43:15.859Z,5.78
2023-02-17T08:45:23.604Z,5.83
2023-02-17T08:47:29.636Z,5.83
2023-02-17T08:49:35.087Z,5.83
2023-02-17T08:51:40.479Z,5.94
2023-02-17T08:53:46.268Z,5.93
2023-02-17T08:55:52.019Z,6.03
2023-02-17T08:57:57.384Z,6.1
2023-02-17T09:00:05.446Z,6.19
2023-02-17T09:02:11.393Z,6.26
2023-02-17T09:04:17.558Z,6.15
2023-02-17T09:06:23.281Z,6.05
2023-02-17T09:08:28.446Z,5.79
2023-02-17T09:10:34.028Z,5.73
2023-02-17T09:12:39.941Z,5.7
2023-02-17T09:14:45.418Z,5.75
2023-02-17T09:16:51.273Z,5.72
2023-02-17T09:18:56.512Z,5.69
2023-02-17T09:21:01.807Z,5.73
2023-02-17T09:23:06.965Z,5.72
2023-02-17T09:25:12.225Z,5.74
2023-02-17T09:27:32.296Z,5.8
2023-02-17T09:29:37.833Z,5.86
2023-02-17T09:31:43.178Z,6.03
2023-02-17T09:33:48.935Z,6.11
2023-02-17T09:35:54.656Z,6.15
2023-02-17T09:38:00.374Z,6.28
2023-02-17T09:40:06.208Z,6.41
2023-02-17T09:42:11.442Z,6.54
2023-02-17T09:44:17.281Z,6.69
2023-02-17T09:46:23.491Z,6.66
2023-02-17T09:48:29.626Z,6.59
2023-02-17T09:50:35.956Z,6.46
2023-02-17T09:52:41.616Z,6.48
2023-02-17T09:54:46.854Z,6.52
2023-02-17T09:56:52.396Z,6.58
2023-02-17T09:58:57.668Z,6.45
2023-02-17T10:01:03.117Z,6.34
2023-02-17T10:03:09.129Z,6.4
2023-02-17T10:05:20.975Z,6.33
2023-02-17T10:07:26.908Z,6.3
2023-02-17T10:09:32.608Z,6.3
2023-02-17T10:11:38.687Z,6.42
2023-02-17T10:13:44.284Z,6.55
2023-02-17T10:15:51.026Z,6.51
2023-02-17T10:17:57.664Z,6.46
2023-02-17T10:20:04.174Z,6.33
2023-02-17T10:22:10.605Z,6.24
2023-02-17T10:24:16.279Z,6.21
2023-02-17T10:26:21.585Z,6.09
2023-02-17T10:28:27.017Z,5.93
2023-02-17T10:30:32.904Z,5.81
2023-02-17T10:32:40.566Z,5.8
2023-02-17T10:34:47.127Z,5.78
2023-02-17T10:36:52.489Z,5.8
2023-02-17T10:38:58.036Z,5.82
2023-02-17T10:41:03.529Z,5.8
2023-02-17T10:43:09.152Z,5.68
2023-02-17T10:45:15.066Z,5.71
2023-02-17T10:47:20.846Z,5.67
2023-02-17T10:49:27.221Z,5.63
2023-02-17T10:51:33.549Z,5.59
2023-02-17T10:53:39.531Z,5.59
2023-02-17T10:55:46.390Z,5.62
2023-02-17T10:57:52.990Z,5.63
2023-02-17T10:59:58.772Z,5.67
2023-02-17T11:02:04.840Z,5.62
2023-02-17T11:04:12.314Z,5.56
2023-02-17T11:06:18.706Z,5.5
2023-02-17T11:08:24.354Z,5.51
2023-02-17T11:10:29.977Z,5.43
2023-02-17T11:12:35.891Z,5.48
2023-02-17T11:14:42.535Z,5.51
2023-02-17T11:16:48.303Z,5.48
2023-02-17T11:18:54.353Z,5.42
2023-02-17T11:21:00.676Z,5.59
2023-02-17T11:23:06.569Z,5.8
2023-02-17T11:25:11.930Z,5.82
2023-02-17T11:27:17.229Z,5.78
2023-02-17T11:29:22.700Z,5.85
2023-02-17T11:31:28.590Z,5.92
2023-02-17T11:33:34.951Z,6.07
2023-02-17T11:35:43.480Z,6.11
2023-02-17T11:37:49.477Z,6.07
2023-02-17T11:39:54.825Z,6.15
2023-02-17T11:42:00.701Z,6.2
2023-02-17T11:44:06.844Z,6.28
2023-02-17T11:46:12.707Z,6.37
2023-02-17T11:48:18.182Z,6.34
2023-02-17T11:50:35.496Z,6.37
2023-02-17T11:52:46.395Z,6.57
2023-02-17T11:55:00.540Z,6.59
2023-02-17T11:57:06.030Z,6.64
2023-02-17T11:59:12.238Z,6.57
2023-02-17T12:01:20.920Z,6.58
2023-02-17T12:03:27.444Z,6.71
2023-02-17T12:05:33.648Z,6.72
2023-02-17T12:07:38.877Z,6.86
2023-02-17T12:09:44.045Z,6.85
2023-02-17T12:11:50.591Z,6.85
2023-02-17T12:13:57.090Z,6.84
2023-02-17T12:16:03.595Z,6.81
2023-02-17T12:18:12.170Z,6.79
2023-02-17T12:20:17.978Z,6.76
2023-02-17T12:22:23.758Z,6.81
2023-02-17T12:24:30.220Z,6.73
2023-02-17T12:26:36.400Z,6.75
2023-02-17T12:28:42.504Z,6.75
2023-02-17T12:30:47.994Z,6.76
2023-02-17T12:32:54.263Z,6.73
2023-02-17T12:35:00.252Z,6.75
2023-02-17T12:37:06.129Z,6.75
2023-02-17T12:39:11.531Z,6.75
2023-02-17T12:41:16.813Z,6.79
2023-02-17T12:43:21.960Z,6.85
2023-02-17T12:45:27.028Z,6.83
2023-02-17T12:47:35.088Z,6.77
2023-02-17T12:49:41.385Z,6.85
2023-02-17T12:51:47.212Z,6.86
2023-02-17T12:53:53.104Z,6.8
2023-02-17T12:55:58.641Z,6.81
2023-02-17T12:58:04.589Z,6.8
2023-02-17T13:00:10.036Z,6.83
2023-02-17T13:02:16.907Z,6.8
2023-02-17T13:04:23.898Z,6.82
2023-02-17T13:06:29.794Z,6.85
2023-02-17T13:08:35.285Z,6.86
2023-02-17T13:10:40.653Z,6.84
2023-02-17T13:12:46.193Z,6.8
2023-02-17T13:14:51.462Z,6.76
2023-02-17T13:16:56.944Z,6.71
2023-02-17T13:19:03.101Z,6.74
2023-02-17T13:21:08.484Z,6.71
2023-02-17T13:23:16.840Z,6.72
2023-02-17T13:25:21.956Z,6.73
2023-02-17T13:27:27.379Z,6.7
2023-02-17T13:29:33.122Z,6.74
2023-02-17T13:31:41.912Z,6.72
2023-02-17T13:33:47.557Z,6.7
2023-02-17T13:35:52.753Z,6.69
2023-02-17T13:37:58.018Z,6.74
2023-02-17T13:40:03.753Z,6.68
2023-02-17T13:42:09.387Z,6.65
2023-02-17T13:44:14.535Z,6.61
2023-02-17T13:46:20.596Z,6.63
2023-02-17T13:48:26.383Z,6.63
2023-02-17T13:50:31.719Z,6.61
2023-02-17T13:52:37.125Z,6.64
2023-02-17T13:54:43.058Z,6.65
2023-02-17T13:56:48.396Z,6.66
2023-02-17T13:58:53.646Z,6.66
2023-02-17T14:00:59.244Z,6.64
2023-02-17T14:03:04.700Z,6.67
2023-02-17T14:05:10.959Z,6.67
2023-02-17T14:07:17.028Z,6.73
2023-02-17T14:09:22.924Z,6.76
2023-02-17T14:11:28.310Z,6.77
2023-02-17T14:13:37.279Z,6.77
2023-02-17T14:15:42.632Z,6.78
2023-02-17T14:17:49.732Z,6.75
2023-02-17T14:19:56.713Z,6.72
2023-02-17T14:22:03.449Z,6.69
2023-02-17T14:24:11.784Z,6.69
2023-02-17T14:26:17.399Z,6.68
2023-02-17T14:28:23.076Z,6.68
2023-02-17T14:30:29.295Z,6.67
2023-02-17T14:32:36.862Z,6.66
2023-02-17T14:34:42.968Z,6.67
2023-02-17T14:36:49.703Z,6.64
2023-02-17T14:38:56.351Z,6.68
2023-02-17T14:41:02.578Z,6.69
2023-02-17T14:43:10.719Z,6.68
2023-02-17T14:45:17.144Z,6.71
2023-02-17T14:47:22.368Z,6.7
2023-02-17T14:49:28.748Z,6.7
2023-02-17T14:51:36.417Z,6.73
2023-02-17T14:53:42.340Z,6.74
2023-02-17T14:55:48.215Z,6.76
2023-02-17T14:57:55.905Z,6.78
2023-02-17T15:00:02.817Z,6.79
2023-02-17T15:02:08.946Z,6.76
2023-02-17T15:04:17.003Z,6.8
2023-02-17T15:06:23.631Z,6.8
2023-02-17T15:08:36.888Z,6.76
2023-02-17T15:10:44.927Z,6.75
2023-02-17T15:12:51.858Z,6.73
2023-02-17T15:14:58.228Z,6.76
2023-02-17T15:17:05.169Z,6.75
2023-02-17T15:19:11.151Z,6.75
2023-02-17T15:21:19.636Z,6.71
2023-02-17T15:23:27.109Z,6.74
2023-02-17T15:25:35.718Z,6.74
2023-02-17T15:27:48.135Z,6.7
2023-02-17T15:29:55.023Z,6.69
2023-02-17T15:32:06.764Z,6.68
2023-02-17T15:34:21.670Z,6.66
2023-02-17T15:36:29.571Z,6.65
2023-02-17T15:38:36.806Z,6.63
2023-02-17T15:40:44.594Z,6.61
2023-02-17T15:42:52.753Z,6.64
2023-02-17T15:50:37.729Z,6.65
2023-02-17T15:52:46.060Z,6.66
2023-02-17T15:54:53.228Z,6.67
2023-02-17T15:56:59.432Z,6.65
2023-02-17T15:59:08.482Z,6.63
2023-02-17T16:01:19.194Z,6.64
2023-02-17T16:03:27.611Z,6.64
2023-02-17T16:05:35.400Z,6.64
2023-02-17T16:07:47.619Z,6.64
2023-02-17T16:09:58.077Z,6.68
2023-02-17T16:12:08.360Z,6.65
2023-02-17T16:14:15.475Z,6.63
2023-02-17T16:16:25.441Z,6.65
2023-02-17T16:18:35.299Z,6.65
2023-02-17T16:20:42.397Z,6.65
2023-02-17T16:22:53.196Z,6.65
2023-02-17T16:25:02.818Z,6.65
2023-02-17T16:27:10.833Z,6.65
2023-02-17T16:29:20.730Z,6.66
2023-02-17T16:31:34.194Z,6.63
2023-02-17T16:34:12.376Z,6.66
2023-02-17T16:41:57.231Z,6.67
2023-02-17T16:44:08.324Z,6.64
2023-02-17T16:46:20.545Z,6.63
2023-02-17T16:48:30.366Z,6.68
2023-02-17T16:50:39.421Z,6.68
2023-02-17T16:52:57.641Z,6.62
2023-02-17T16:55:12.629Z,6.63
2023-02-17T16:57:20.533Z,6.63
2023-02-17T16:59:32.598Z,6.62
2023-02-17T17:01:48.297Z,6.65
2023-02-17T17:03:58.241Z,6.64
2023-02-17T17:06:10.970Z,6.66
2023-02-17T17:08:23.322Z,6.66
2023-02-17T17:10:30.637Z,6.67
2023-02-17T17:12:44.434Z,6.67
2023-02-17T17:14:56.272Z,6.67
2023-02-17T17:17:04.367Z,6.65
2023-02-17T17:19:13.045Z,6.69
2023-02-17T17:21:23.702Z,6.66
2023-02-17T17:23:33.878Z,6.67
2023-02-17T17:25:44.817Z,6.64
2023-02-17T17:27:54.404Z,6.66
2023-02-17T17:30:02.376Z,6.66
2023-02-17T17:32:12.377Z,6.72
2023-02-17T17:34:24.040Z,6.7
2023-02-17T17:36:32.033Z,6.66
2023-02-17T17:38:48.477Z,6.71
2023-02-17T17:41:00.008Z,6.7
2023-02-17T17:43:10.466Z,6.71
2023-02-17T17:45:26.988Z,6.69
2023-02-17T17:47:36.846Z,6.67
2023-02-17T17:49:50.331Z,6.66
2023-02-17T17:52:00.374Z,6.67
2023-02-17T17:54:09.939Z,6.69
2023-02-17T17:56:20.798Z,6.69
2023-02-17T17:58:44.488Z,6.71
2023-02-17T18:00:56.404Z,6.71
2023-02-17T18:03:09.877Z,6.71
2023-02-17T18:05:20.023Z,6.71
2023-02-17T18:07:31.775Z,6.73
2023-02-17T18:09:45.023Z,6.71
2023-02-17T18:11:57.870Z,6.69
2023-02-17T18:14:13.978Z,6.72
2023-02-17T18:16:25.352Z,6.74
2023-02-17T18:18:43.662Z,6.73
2023-02-17T18:20:57.588Z,6.76
2023-02-17T18:23:18.192Z,6.75
2023-02-17T18:28:04.585Z,6.79
2023-02-17T18:30:28.568Z,6.83
2023-02-17T18:32:43.306Z,6.84
2023-02-17T18:34:57.267Z,6.84
2023-02-17T18:37:08.900Z,6.85
2023-02-17T18:39:17.499Z,6.86
2023-02-17T18:41:32.191Z,6.86
2023-02-17T18:43:40.652Z,6.91
2023-02-17T18:45:53.729Z,6.91
2023-02-17T18:48:08.587Z,6.92
2023-02-17T18:50:19.349Z,6.94
2023-02-17T18:52:36.522Z,6.94
2023-02-17T18:54:46.763Z,6.99
2023-02-17T18:56:56.614Z,7
2023-02-17T18:59:12.820Z,7
2023-02-17T19:01:24.710Z,7.02
2023-02-17T19:03:38.005Z,7.02
2023-02-17T19:05:50.033Z,7.06
2023-02-17T19:08:00.696Z,7.1
2023-02-17T19:10:10.890Z,7.1
2023-02-17T19:12:25.905Z,7.16
2023-02-17T19:14:36.022Z,7.14
2023-02-17T19:16:48.658Z,7.14
2023-02-17T19:19:03.242Z,7.15
2023-02-17T19:21:16.523Z,7.2
2023-02-17T19:23:32.764Z,7.22
2023-02-17T19:25:50.369Z,7.29
2023-02-17T19:28:01.063Z,7.28
2023-02-17T19:30:12.845Z,7.35
2023-02-17T19:32:25.332Z,7.34
2023-02-17T19:34:35.647Z,7.4
2023-02-17T19:36:53.445Z,7.42
2023-02-17T19:39:08.333Z,7.44
2023-02-17T19:41:18.235Z,7.5
2023-02-17T19:43:30.763Z,7.53
2023-02-17T19:45:41.239Z,7.55
2023-02-17T19:47:52.942Z,7.6
2023-02-17T19:50:09.544Z,7.66
2023-02-17T19:52:30.040Z,7.72
2023-02-17T19:54:42.654Z,7.78
2023-02-17T19:56:57.039Z,7.78
2023-02-17T19:59:11.487Z,7.85
2023-02-17T20:01:29.584Z,7.92
2023-02-17T20:03:47.368Z,7.96
2023-02-17T20:06:03.690Z,7.97
2023-02-17T20:08:15.485Z,8
2023-02-17T20:10:27.604Z,8.01
2023-02-17T20:12:38.358Z,8.08
2023-02-17T20:14:51.793Z,8.11
2023-02-17T20:17:03.625Z,8.2
2023-02-17T20:19:15.874Z,8.25
2023-02-17T20:21:26.719Z,8.3
2023-02-17T20:23:41.615Z,8.35
2023-02-17T20:25:52.994Z,8.36
2023-02-17T20:28:05.932Z,8.41
2023-02-17T20:30:20.121Z,8.41
2023-02-17T20:32:40.798Z,8.51
2023-02-17T20:35:04.434Z,8.55
2023-02-17T20:37:14.893Z,8.6
2023-02-17T20:39:25.763Z,8.66
2023-02-17T20:41:36.220Z,8.81
2023-02-17T20:43:47.536Z,8.96
2023-02-17T20:46:01.738Z,8.98
2023-02-17T20:48:17.918Z,8.97
2023-02-17T20:50:27.520Z,9.01
2023-02-17T20:52:41.402Z,9.03
2023-02-17T20:54:53.606Z,9.07
2023-02-17T20:57:07.939Z,9.12
2023-02-17T20:59:31.324Z,9.24
2023-02-17T21:01:41.221Z,9.26
2023-02-17T21:03:51.734Z,9.22
2023-02-17T21:06:01.284Z,9.28
2023-02-17T21:08:12.508Z,9.27
2023-02-17T21:10:24.492Z,9.31
2023-02-17T21:12:39.286Z,9.29
2023-02-17T21:14:54.083Z,9.21
2023-02-17T21:17:02.445Z,9.25
2023-02-17T21:19:11.265Z,9.21
2023-02-17T21:21:21.529Z,9.2
2023-02-17T21:23:33.225Z,9.18
2023-02-17T21:25:41.831Z,9.21
2023-02-17T21:27:51.989Z,9.18
2023-02-17T21:30:02.525Z,9.16
2023-02-17T21:32:11.665Z,9.15
2023-02-17T21:34:21.390Z,9.2
2023-02-17T21:36:30.519Z,9.18
2023-02-17T21:38:38.343Z,9.19
2023-02-17T21:40:46.423Z,9.2
2023-02-17T21:42:53.616Z,9.19
2023-02-17T21:45:01.374Z,9.19
2023-02-17T21:47:11.659Z,9.19
2023-02-17T21:49:22.826Z,9.22
2023-02-17T21:51:32.590Z,9.26
2023-02-17T21:53:41.811Z,9.26
2023-02-17T21:55:49.075Z,9.29
2023-02-17T21:57:57.154Z,9.25
2023-02-17T22:00:07.958Z,9.32
2023-02-17T22:02:17.274Z,9.41
2023-02-17T22:04:25.264Z,9.46
2023-02-17T22:06:32.863Z,9.4
2023-02-17T22:08:41.333Z,9.42
2023-02-17T22:10:48.131Z,9.31
2023-02-17T22:12:55.132Z,9.13
2023-02-17T22:15:01.826Z,8.94
2023-02-17T22:17:09.671Z,8.82
2023-02-17T22:19:16.500Z,8.73
2023-02-17T22:21:22.916Z,8.58
2023-02-17T22:23:29.768Z,8.44
2023-02-17T22:25:36.269Z,8.34
2023-02-17T22:27:42.906Z,8.31
2023-02-17T22:29:50.195Z,8.32
2023-02-17T22:31:56.829Z,8.27
2023-02-17T22:34:05.108Z,8.28
2023-02-17T22:36:11.947Z,8.24
2023-02-17T22:38:18.352Z,8.16
2023-02-17T22:40:24.708Z,8.12
2023-02-17T22:42:31.939Z,8.12
2023-02-17T22:44:38.361Z,8.09
2023-02-17T22:46:45.904Z,8.1
2023-02-17T22:48:52.837Z,8.18
2023-02-17T22:50:59.722Z,8.21
2023-02-17T22:53:06.465Z,8.23
2023-02-17T22:55:12.367Z,8.22
2023-02-17T22:57:19.167Z,8.21
2023-02-17T22:59:26.266Z,8.14
2023-02-17T23:01:32.495Z,8.33
2023-02-17T23:03:38.462Z,8.29
2023-02-17T23:05:45.178Z,8.31
2023-02-17T23:07:52.835Z,8.38
2023-02-17T23:09:58.761Z,8.26
2023-02-17T23:12:03.830Z,8.22
2023-02-17T23:14:09.729Z,8.24
2023-02-17T23:16:15.207Z,8.31
2023-02-17T23:18:20.809Z,8.4
2023-02-17T23:20:26.739Z,8.45
2023-02-17T23:22:32.200Z,8.4
2023-02-17T23:24:37.247Z,8.35
2023-02-17T23:26:42.734Z,8.35
2023-02-17T23:28:48.048Z,8.3
2023-02-17T23:30:54.338Z,8.07
2023-02-17T23:33:03.658Z,7.97
2023-02-17T23:35:09.815Z,7.98
2023-02-17T23:37:15.944Z,8
2023-02-17T23:39:22.039Z,7.88
2023-02-17T23:41:27.718Z,7.64
2023-02-17T23:43:33.911Z,7.72
2023-02-17T23:45:39.460Z,7.73
2023-02-17T23:47:45.487Z,7.6
2023-02-17T23:49:52.463Z,7.44
2023-02-17T23:51:58.044Z,7.45
2023-02-17T23:54:03.799Z,7.45
2023-02-17T23:56:09.165Z,7.53
2023-02-17T23:58:15.027Z,7.35
